sensor_id;sensor_type;location;lat;lon;timestamp;P1;durP1;ratioP1;P2;durP2;ratioP2
32130;SDS011;18639;50.716;7.086;2024-03-06T00:00:56;1.95;;;1.23;;
32130;SDS011;18639;50.716;7.086;2024-03-06T00:03:21;3.00;;;1.30;;
32130;SDS011;18639;50.716;7.086;2024-03-06T00:05:47;2.53;;;1.50;;
32130;SDS011;18639;50.716;7.086;2024-03-06T00:08:12;1.70;;;1.33;;
32130;SDS011;18639;50.716;7.086;2024-03-06T00:10:38;2.05;;;1.08;;
32130;SDS011;18639;50.716;7.086;2024-03-06T00:13:03;1.98;;;1.45;;
32130;SDS011;18639;50.716;7.086;2024-03-06T00:15:29;3.58;;;1.65;;
32130;SDS011;18639;50.716;7.086;2024-03-06T00:17:54;3.30;;;1.35;;
32130;SDS011;18639;50.716;7.086;2024-03-06T00:20:19;5.43;;;1.30;;
32130;SDS011;18639;50.716;7.086;2024-03-06T00:22:44;2.15;;;1.20;;
32130;SDS011;18639;50.716;7.086;2024-03-06T00:25:10;2.30;;;1.25;;
32130;SDS011;18639;50.716;7.086;2024-03-06T00:27:36;2.65;;;1.08;;
32130;SDS011;18639;50.716;7.086;2024-03-06T00:30:02;2.25;;;1.10;;
32130;SDS011;18639;50.716;7.086;2024-03-06T00:32:27;2.80;;;1.33;;
32130;SDS011;18639;50.716;7.086;2024-03-06T00:34:53;2.30;;;1.17;;
32130;SDS011;18639;50.716;7.086;2024-03-06T00:37:19;1.77;;;1.00;;
32130;SDS011;18639;50.716;7.086;2024-03-06T00:39:44;3.30;;;1.23;;
32130;SDS011;18639;50.716;7.086;2024-03-06T00:42:09;2.60;;;1.38;;
32130;SDS011;18639;50.716;7.086;2024-03-06T00:44:35;2.40;;;1.05;;
32130;SDS011;18639;50.716;7.086;2024-03-06T00:47:01;1.45;;;1.00;;
32130;SDS011;18639;50.716;7.086;2024-03-06T00:49:26;1.48;;;0.90;;
32130;SDS011;18639;50.716;7.086;2024-03-06T00:51:51;2.40;;;1.10;;
32130;SDS011;18639;50.716;7.086;2024-03-06T00:54:17;1.70;;;1.15;;
32130;SDS011;18639;50.716;7.086;2024-03-06T00:56:42;1.55;;;0.93;;
32130;SDS011;18639;50.716;7.086;2024-03-06T00:59:07;1.02;;;0.85;;
32130;SDS011;18639;50.716;7.086;2024-03-06T01:01:32;1.23;;;0.80;;
32130;SDS011;18639;50.716;7.086;2024-03-06T01:03:58;1.25;;;0.93;;
32130;SDS011;18639;50.716;7.086;2024-03-06T01:06:23;2.85;;;1.20;;
32130;SDS011;18639;50.716;7.086;2024-03-06T01:08:48;1.33;;;0.68;;
32130;SDS011;18639;50.716;7.086;2024-03-06T01:11:14;1.95;;;1.08;;
32130;SDS011;18639;50.716;7.086;2024-03-06T01:13:42;1.70;;;1.02;;
32130;SDS011;18639;50.716;7.086;2024-03-06T01:16:07;1.88;;;0.93;;
32130;SDS011;18639;50.716;7.086;2024-03-06T01:18:33;2.17;;;1.00;;
32130;SDS011;18639;50.716;7.086;2024-03-06T01:20:59;3.63;;;1.38;;
32130;SDS011;18639;50.716;7.086;2024-03-06T01:23:24;1.67;;;1.10;;
32130;SDS011;18639;50.716;7.086;2024-03-06T01:25:49;2.33;;;1.30;;
32130;SDS011;18639;50.716;7.086;2024-03-06T01:28:14;1.88;;;0.70;;
32130;SDS011;18639;50.716;7.086;2024-03-06T01:30:40;1.67;;;0.80;;
32130;SDS011;18639;50.716;7.086;2024-03-06T01:33:05;1.92;;;1.00;;
32130;SDS011;18639;50.716;7.086;2024-03-06T01:35:31;2.28;;;1.10;;
32130;SDS011;18639;50.716;7.086;2024-03-06T01:37:56;2.97;;;1.15;;
32130;SDS011;18639;50.716;7.086;2024-03-06T01:40:21;1.20;;;0.70;;
32130;SDS011;18639;50.716;7.086;2024-03-06T01:42:47;1.50;;;1.00;;
32130;SDS011;18639;50.716;7.086;2024-03-06T01:45:16;0.77;;;0.70;;
32130;SDS011;18639;50.716;7.086;2024-03-06T01:47:41;3.30;;;1.02;;
32130;SDS011;18639;50.716;7.086;2024-03-06T01:50:07;3.13;;;0.80;;
32130;SDS011;18639;50.716;7.086;2024-03-06T01:52:34;1.45;;;0.90;;
32130;SDS011;18639;50.716;7.086;2024-03-06T01:55:01;1.75;;;0.95;;
32130;SDS011;18639;50.716;7.086;2024-03-06T01:57:27;1.30;;;0.90;;
32130;SDS011;18639;50.716;7.086;2024-03-06T01:59:53;2.03;;;1.00;;
32130;SDS011;18639;50.716;7.086;2024-03-06T02:02:19;2.33;;;0.98;;
32130;SDS011;18639;50.716;7.086;2024-03-06T02:04:45;1.20;;;0.82;;
32130;SDS011;18639;50.716;7.086;2024-03-06T02:07:11;2.30;;;0.90;;
32130;SDS011;18639;50.716;7.086;2024-03-06T02:09:38;1.10;;;0.70;;
32130;SDS011;18639;50.716;7.086;2024-03-06T02:12:05;1.65;;;1.00;;
32130;SDS011;18639;50.716;7.086;2024-03-06T02:14:33;1.58;;;0.88;;
32130;SDS011;18639;50.716;7.086;2024-03-06T02:16:59;1.15;;;0.88;;
32130;SDS011;18639;50.716;7.086;2024-03-06T02:19:24;1.73;;;1.00;;
32130;SDS011;18639;50.716;7.086;2024-03-06T02:21:51;1.45;;;0.70;;
32130;SDS011;18639;50.716;7.086;2024-03-06T02:24:17;1.58;;;0.82;;
32130;SDS011;18639;50.716;7.086;2024-03-06T02:26:42;0.90;;;0.82;;
32130;SDS011;18639;50.716;7.086;2024-03-06T02:29:07;0.80;;;0.70;;
32130;SDS011;18639;50.716;7.086;2024-03-06T02:31:34;1.33;;;0.90;;
32130;SDS011;18639;50.716;7.086;2024-03-06T02:33:59;0.90;;;0.73;;
32130;SDS011;18639;50.716;7.086;2024-03-06T02:36:27;1.10;;;0.75;;
32130;SDS011;18639;50.716;7.086;2024-03-06T02:38:52;1.92;;;0.70;;
32130;SDS011;18639;50.716;7.086;2024-03-06T02:41:18;1.38;;;0.70;;
32130;SDS011;18639;50.716;7.086;2024-03-06T02:43:43;2.08;;;0.70;;
32130;SDS011;18639;50.716;7.086;2024-03-06T02:46:08;0.93;;;0.65;;
32130;SDS011;18639;50.716;7.086;2024-03-06T02:48:34;1.48;;;0.70;;
32130;SDS011;18639;50.716;7.086;2024-03-06T02:50:59;1.42;;;0.80;;
32130;SDS011;18639;50.716;7.086;2024-03-06T02:53:25;0.85;;;0.68;;
32130;SDS011;18639;50.716;7.086;2024-03-06T02:55:52;0.98;;;0.70;;
32130;SDS011;18639;50.716;7.086;2024-03-06T02:58:18;1.40;;;0.77;;
32130;SDS011;18639;50.716;7.086;2024-03-06T03:00:43;1.38;;;0.73;;
32130;SDS011;18639;50.716;7.086;2024-03-06T03:03:09;1.17;;;0.65;;
32130;SDS011;18639;50.716;7.086;2024-03-06T03:05:37;1.05;;;0.50;;
32130;SDS011;18639;50.716;7.086;2024-03-06T03:08:02;1.83;;;0.70;;
32130;SDS011;18639;50.716;7.086;2024-03-06T03:10:28;1.30;;;0.70;;
32130;SDS011;18639;50.716;7.086;2024-03-06T03:12:54;1.85;;;0.75;;
32130;SDS011;18639;50.716;7.086;2024-03-06T03:15:19;1.17;;;0.75;;
32130;SDS011;18639;50.716;7.086;2024-03-06T03:17:45;0.90;;;0.70;;
32130;SDS011;18639;50.716;7.086;2024-03-06T03:20:11;0.95;;;0.65;;
32130;SDS011;18639;50.716;7.086;2024-03-06T03:22:39;1.02;;;0.63;;
32130;SDS011;18639;50.716;7.086;2024-03-06T03:25:08;1.13;;;0.68;;
32130;SDS011;18639;50.716;7.086;2024-03-06T03:27:36;0.95;;;0.70;;
32130;SDS011;18639;50.716;7.086;2024-03-06T03:30:02;0.73;;;0.70;;
32130;SDS011;18639;50.716;7.086;2024-03-06T03:32:28;0.85;;;0.70;;
32130;SDS011;18639;50.716;7.086;2024-03-06T03:34:53;1.15;;;0.70;;
32130;SDS011;18639;50.716;7.086;2024-03-06T03:37:18;0.55;;;0.55;;
32130;SDS011;18639;50.716;7.086;2024-03-06T03:39:44;1.08;;;0.50;;
32130;SDS011;18639;50.716;7.086;2024-03-06T03:42:09;1.77;;;0.70;;
32130;SDS011;18639;50.716;7.086;2024-03-06T03:44:35;1.42;;;0.85;;
32130;SDS011;18639;50.716;7.086;2024-03-06T03:47:00;0.75;;;0.60;;
32130;SDS011;18639;50.716;7.086;2024-03-06T03:49:25;0.82;;;0.75;;
32130;SDS011;18639;50.716;7.086;2024-03-06T03:51:51;1.27;;;0.80;;
32130;SDS011;18639;50.716;7.086;2024-03-06T03:54:16;1.02;;;0.63;;
32130;SDS011;18639;50.716;7.086;2024-03-06T03:56:42;0.70;;;0.60;;
32130;SDS011;18639;50.716;7.086;2024-03-06T03:59:07;1.35;;;0.55;;
32130;SDS011;18639;50.716;7.086;2024-03-06T04:01:32;1.85;;;0.80;;
32130;SDS011;18639;50.716;7.086;2024-03-06T04:03:57;3.50;;;0.90;;
32130;SDS011;18639;50.716;7.086;2024-03-06T04:06:23;0.82;;;0.73;;
32130;SDS011;18639;50.716;7.086;2024-03-06T04:08:48;1.33;;;0.75;;
32130;SDS011;18639;50.716;7.086;2024-03-06T04:11:13;4.88;;;1.23;;
32130;SDS011;18639;50.716;7.086;2024-03-06T04:13:39;1.17;;;0.63;;
32130;SDS011;18639;50.716;7.086;2024-03-06T04:16:04;1.00;;;0.70;;
32130;SDS011;18639;50.716;7.086;2024-03-06T04:18:30;0.85;;;0.60;;
32130;SDS011;18639;50.716;7.086;2024-03-06T04:21:03;1.80;;;0.77;;
32130;SDS011;18639;50.716;7.086;2024-03-06T04:23:30;1.48;;;0.80;;
32130;SDS011;18639;50.716;7.086;2024-03-06T04:25:55;1.33;;;0.80;;
32130;SDS011;18639;50.716;7.086;2024-03-06T04:28:20;1.20;;;0.70;;
32130;SDS011;18639;50.716;7.086;2024-03-06T04:30:46;1.67;;;0.73;;
32130;SDS011;18639;50.716;7.086;2024-03-06T04:33:11;1.75;;;0.90;;
32130;SDS011;18639;50.716;7.086;2024-03-06T04:35:39;0.77;;;0.70;;
32130;SDS011;18639;50.716;7.086;2024-03-06T04:38:05;1.13;;;0.80;;
32130;SDS011;18639;50.716;7.086;2024-03-06T04:40:31;1.17;;;0.70;;
32130;SDS011;18639;50.716;7.086;2024-03-06T04:42:56;1.98;;;1.05;;
32130;SDS011;18639;50.716;7.086;2024-03-06T04:45:22;1.45;;;0.77;;
32130;SDS011;18639;50.716;7.086;2024-03-06T04:47:47;1.35;;;0.77;;
32130;SDS011;18639;50.716;7.086;2024-03-06T04:50:12;1.23;;;0.65;;
32130;SDS011;18639;50.716;7.086;2024-03-06T04:52:39;0.70;;;0.60;;
32130;SDS011;18639;50.716;7.086;2024-03-06T04:55:05;1.10;;;0.73;;
32130;SDS011;18639;50.716;7.086;2024-03-06T04:57:31;0.70;;;0.40;;
32130;SDS011;18639;50.716;7.086;2024-03-06T04:59:57;0.80;;;0.68;;
32130;SDS011;18639;50.716;7.086;2024-03-06T05:02:23;1.25;;;0.80;;
32130;SDS011;18639;50.716;7.086;2024-03-06T05:04:48;1.63;;;0.70;;
32130;SDS011;18639;50.716;7.086;2024-03-06T05:07:14;1.80;;;0.60;;
32130;SDS011;18639;50.716;7.086;2024-03-06T05:09:39;1.42;;;0.80;;
32130;SDS011;18639;50.716;7.086;2024-03-06T05:12:06;1.38;;;0.90;;
32130;SDS011;18639;50.716;7.086;2024-03-06T05:14:32;1.33;;;0.60;;
32130;SDS011;18639;50.716;7.086;2024-03-06T05:16:57;0.95;;;0.60;;
32130;SDS011;18639;50.716;7.086;2024-03-06T05:19:22;1.52;;;0.85;;
32130;SDS011;18639;50.716;7.086;2024-03-06T05:21:48;0.80;;;0.80;;
32130;SDS011;18639;50.716;7.086;2024-03-06T05:24:13;1.33;;;0.80;;
32130;SDS011;18639;50.716;7.086;2024-03-06T05:26:38;1.45;;;0.70;;
32130;SDS011;18639;50.716;7.086;2024-03-06T05:29:03;3.90;;;0.73;;
32130;SDS011;18639;50.716;7.086;2024-03-06T05:31:29;0.98;;;0.80;;
32130;SDS011;18639;50.716;7.086;2024-03-06T05:33:54;2.13;;;0.80;;
32130;SDS011;18639;50.716;7.086;2024-03-06T05:36:20;1.35;;;0.77;;
32130;SDS011;18639;50.716;7.086;2024-03-06T05:38:45;2.25;;;1.00;;
32130;SDS011;18639;50.716;7.086;2024-03-06T05:41:10;0.90;;;0.60;;
32130;SDS011;18639;50.716;7.086;2024-03-06T05:43:36;1.02;;;0.65;;
32130;SDS011;18639;50.716;7.086;2024-03-06T05:46:02;1.23;;;0.60;;
32130;SDS011;18639;50.716;7.086;2024-03-06T05:48:27;1.63;;;0.80;;
32130;SDS011;18639;50.716;7.086;2024-03-06T05:50:53;1.10;;;0.73;;
32130;SDS011;18639;50.716;7.086;2024-03-06T05:53:18;1.33;;;0.68;;
32130;SDS011;18639;50.716;7.086;2024-03-06T05:55:44;1.70;;;0.77;;
32130;SDS011;18639;50.716;7.086;2024-03-06T05:58:10;1.20;;;0.80;;
32130;SDS011;18639;50.716;7.086;2024-03-06T06:00:35;2.03;;;0.80;;
32130;SDS011;18639;50.716;7.086;2024-03-06T06:03:00;0.47;;;0.47;;
32130;SDS011;18639;50.716;7.086;2024-03-06T06:05:26;1.13;;;0.60;;
32130;SDS011;18639;50.716;7.086;2024-03-06T06:07:51;1.42;;;0.75;;
32130;SDS011;18639;50.716;7.086;2024-03-06T06:10:16;1.10;;;0.77;;
32130;SDS011;18639;50.716;7.086;2024-03-06T06:12:42;0.68;;;0.50;;
32130;SDS011;18639;50.716;7.086;2024-03-06T06:15:07;1.33;;;0.75;;
32130;SDS011;18639;50.716;7.086;2024-03-06T06:17:33;0.85;;;0.70;;
32130;SDS011;18639;50.716;7.086;2024-03-06T06:19:59;2.33;;;0.88;;
32130;SDS011;18639;50.716;7.086;2024-03-06T06:22:26;0.63;;;0.60;;
32130;SDS011;18639;50.716;7.086;2024-03-06T06:24:52;0.85;;;0.70;;
32130;SDS011;18639;50.716;7.086;2024-03-06T06:27:18;1.00;;;0.70;;
32130;SDS011;18639;50.716;7.086;2024-03-06T06:29:43;3.30;;;1.48;;
32130;SDS011;18639;50.716;7.086;2024-03-06T06:32:08;2.92;;;0.70;;
32130;SDS011;18639;50.716;7.086;2024-03-06T06:34:33;1.85;;;0.98;;
32130;SDS011;18639;50.716;7.086;2024-03-06T06:36:59;1.42;;;0.90;;
32130;SDS011;18639;50.716;7.086;2024-03-06T06:39:24;1.08;;;0.80;;
32130;SDS011;18639;50.716;7.086;2024-03-06T06:41:49;1.40;;;0.80;;
32130;SDS011;18639;50.716;7.086;2024-03-06T06:44:14;1.48;;;0.98;;
32130;SDS011;18639;50.716;7.086;2024-03-06T06:46:40;1.80;;;0.90;;
32130;SDS011;18639;50.716;7.086;2024-03-06T06:49:05;2.70;;;0.80;;
32130;SDS011;18639;50.716;7.086;2024-03-06T06:51:30;1.23;;;0.70;;
32130;SDS011;18639;50.716;7.086;2024-03-06T06:53:56;0.88;;;0.60;;
32130;SDS011;18639;50.716;7.086;2024-03-06T06:56:21;2.47;;;0.80;;
32130;SDS011;18639;50.716;7.086;2024-03-06T06:58:49;1.50;;;0.88;;
32130;SDS011;18639;50.716;7.086;2024-03-06T07:01:14;0.98;;;0.70;;
32130;SDS011;18639;50.716;7.086;2024-03-06T07:03:41;1.88;;;0.88;;
32130;SDS011;18639;50.716;7.086;2024-03-06T07:06:07;1.30;;;0.93;;
32130;SDS011;18639;50.716;7.086;2024-03-06T07:08:32;1.65;;;0.93;;
32130;SDS011;18639;50.716;7.086;2024-03-06T07:10:58;5.55;;;0.98;;
32130;SDS011;18639;50.716;7.086;2024-03-06T07:13:23;1.98;;;0.90;;
32130;SDS011;18639;50.716;7.086;2024-03-06T07:15:48;2.30;;;1.08;;
32130;SDS011;18639;50.716;7.086;2024-03-06T07:18:14;1.35;;;0.80;;
32130;SDS011;18639;50.716;7.086;2024-03-06T07:20:39;2.10;;;1.00;;
32130;SDS011;18639;50.716;7.086;2024-03-06T07:23:05;1.23;;;0.80;;
32130;SDS011;18639;50.716;7.086;2024-03-06T07:25:31;1.48;;;0.85;;
32130;SDS011;18639;50.716;7.086;2024-03-06T07:27:56;1.58;;;0.73;;
32130;SDS011;18639;50.716;7.086;2024-03-06T07:30:22;2.47;;;0.70;;
32130;SDS011;18639;50.716;7.086;2024-03-06T07:32:47;2.72;;;0.88;;
32130;SDS011;18639;50.716;7.086;2024-03-06T07:35:13;2.83;;;1.17;;
32130;SDS011;18639;50.716;7.086;2024-03-06T07:37:38;2.17;;;0.88;;
32130;SDS011;18639;50.716;7.086;2024-03-06T07:40:04;1.42;;;0.73;;
32130;SDS011;18639;50.716;7.086;2024-03-06T07:42:31;2.05;;;1.33;;
32130;SDS011;18639;50.716;7.086;2024-03-06T07:44:57;2.83;;;1.20;;
32130;SDS011;18639;50.716;7.086;2024-03-06T07:47:22;1.67;;;1.10;;
32130;SDS011;18639;50.716;7.086;2024-03-06T07:49:47;3.03;;;0.95;;
32130;SDS011;18639;50.716;7.086;2024-03-06T07:52:13;2.15;;;1.15;;
32130;SDS011;18639;50.716;7.086;2024-03-06T07:54:38;3.67;;;1.92;;
32130;SDS011;18639;50.716;7.086;2024-03-06T07:57:04;2.13;;;0.88;;
32130;SDS011;18639;50.716;7.086;2024-03-06T07:59:30;0.93;;;0.80;;
32130;SDS011;18639;50.716;7.086;2024-03-06T08:01:55;1.50;;;1.13;;
32130;SDS011;18639;50.716;7.086;2024-03-06T08:04:21;3.03;;;1.27;;
32130;SDS011;18639;50.716;7.086;2024-03-06T08:06:47;2.33;;;1.20;;
32130;SDS011;18639;50.716;7.086;2024-03-06T08:09:12;2.42;;;1.15;;
32130;SDS011;18639;50.716;7.086;2024-03-06T08:11:37;2.15;;;1.00;;
32130;SDS011;18639;50.716;7.086;2024-03-06T08:14:02;2.13;;;1.02;;
32130;SDS011;18639;50.716;7.086;2024-03-06T08:16:28;2.67;;;1.23;;
32130;SDS011;18639;50.716;7.086;2024-03-06T08:18:55;2.88;;;1.40;;
32130;SDS011;18639;50.716;7.086;2024-03-06T08:21:20;3.42;;;1.58;;
32130;SDS011;18639;50.716;7.086;2024-03-06T08:23:46;2.95;;;1.40;;
32130;SDS011;18639;50.716;7.086;2024-03-06T08:26:12;3.55;;;1.70;;
32130;SDS011;18639;50.716;7.086;2024-03-06T08:28:38;4.00;;;1.60;;
32130;SDS011;18639;50.716;7.086;2024-03-06T08:31:03;1.73;;;1.23;;
32130;SDS011;18639;50.716;7.086;2024-03-06T08:33:28;2.20;;;1.60;;
32130;SDS011;18639;50.716;7.086;2024-03-06T08:35:54;4.85;;;1.90;;
32130;SDS011;18639;50.716;7.086;2024-03-06T08:38:19;2.92;;;1.23;;
32130;SDS011;18639;50.716;7.086;2024-03-06T08:40:45;3.40;;;1.42;;
32130;SDS011;18639;50.716;7.086;2024-03-06T08:43:11;3.13;;;1.85;;
32130;SDS011;18639;50.716;7.086;2024-03-06T08:45:37;3.95;;;1.77;;
32130;SDS011;18639;50.716;7.086;2024-03-06T08:48:03;3.88;;;1.80;;
32130;SDS011;18639;50.716;7.086;2024-03-06T08:50:28;3.35;;;1.90;;
32130;SDS011;18639;50.716;7.086;2024-03-06T08:52:54;2.78;;;1.20;;
32130;SDS011;18639;50.716;7.086;2024-03-06T08:55:19;3.80;;;1.67;;
32130;SDS011;18639;50.716;7.086;2024-03-06T08:57:44;3.78;;;1.60;;
32130;SDS011;18639;50.716;7.086;2024-03-06T09:00:10;4.45;;;1.88;;
32130;SDS011;18639;50.716;7.086;2024-03-06T09:02:36;3.13;;;1.55;;
32130;SDS011;18639;50.716;7.086;2024-03-06T09:05:05;2.45;;;1.70;;
32130;SDS011;18639;50.716;7.086;2024-03-06T09:07:31;3.85;;;1.80;;
32130;SDS011;18639;50.716;7.086;2024-03-06T09:10:02;4.03;;;1.80;;
32130;SDS011;18639;50.716;7.086;2024-03-06T09:12:27;4.78;;;1.95;;
32130;SDS011;18639;50.716;7.086;2024-03-06T09:14:53;2.20;;;1.60;;
32130;SDS011;18639;50.716;7.086;2024-03-06T09:17:18;3.53;;;1.73;;
32130;SDS011;18639;50.716;7.086;2024-03-06T09:19:43;4.20;;;1.33;;
32130;SDS011;18639;50.716;7.086;2024-03-06T09:22:09;4.93;;;2.05;;
32130;SDS011;18639;50.716;7.086;2024-03-06T09:24:34;3.10;;;1.73;;
32130;SDS011;18639;50.716;7.086;2024-03-06T09:27:05;2.83;;;1.80;;
32130;SDS011;18639;50.716;7.086;2024-03-06T09:29:31;2.97;;;1.65;;
32130;SDS011;18639;50.716;7.086;2024-03-06T09:31:56;3.30;;;1.95;;
32130;SDS011;18639;50.716;7.086;2024-03-06T09:34:21;4.07;;;1.92;;
32130;SDS011;18639;50.716;7.086;2024-03-06T09:36:48;3.15;;;1.80;;
32130;SDS011;18639;50.716;7.086;2024-03-06T09:39:15;4.32;;;1.90;;
32130;SDS011;18639;50.716;7.086;2024-03-06T09:41:45;3.35;;;1.80;;
32130;SDS011;18639;50.716;7.086;2024-03-06T09:44:11;4.30;;;1.98;;
32130;SDS011;18639;50.716;7.086;2024-03-06T09:46:41;4.50;;;2.15;;
32130;SDS011;18639;50.716;7.086;2024-03-06T09:49:10;3.30;;;1.75;;
32130;SDS011;18639;50.716;7.086;2024-03-06T09:51:40;4.57;;;2.00;;
32130;SDS011;18639;50.716;7.086;2024-03-06T09:54:09;4.72;;;1.95;;
32130;SDS011;18639;50.716;7.086;2024-03-06T09:56:36;4.15;;;2.13;;
32130;SDS011;18639;50.716;7.086;2024-03-06T09:59:02;6.93;;;1.80;;
32130;SDS011;18639;50.716;7.086;2024-03-06T10:01:28;3.70;;;1.80;;
32130;SDS011;18639;50.716;7.086;2024-03-06T10:03:56;4.68;;;1.92;;
32130;SDS011;18639;50.716;7.086;2024-03-06T10:06:21;4.28;;;2.00;;
32130;SDS011;18639;50.716;7.086;2024-03-06T10:08:46;3.30;;;1.80;;
32130;SDS011;18639;50.716;7.086;2024-03-06T10:11:12;5.25;;;1.92;;
32130;SDS011;18639;50.716;7.086;2024-03-06T10:13:37;4.43;;;1.90;;
32130;SDS011;18639;50.716;7.086;2024-03-06T10:16:03;2.95;;;1.65;;
32130;SDS011;18639;50.716;7.086;2024-03-06T10:18:33;3.50;;;1.73;;
32130;SDS011;18639;50.716;7.086;2024-03-06T10:20:58;3.90;;;1.80;;
32130;SDS011;18639;50.716;7.086;2024-03-06T10:23:24;3.05;;;1.88;;
32130;SDS011;18639;50.716;7.086;2024-03-06T10:25:50;3.53;;;1.92;;
32130;SDS011;18639;50.716;7.086;2024-03-06T10:28:17;4.38;;;1.77;;
32130;SDS011;18639;50.716;7.086;2024-03-06T10:30:43;2.50;;;1.50;;
32130;SDS011;18639;50.716;7.086;2024-03-06T10:33:11;3.70;;;1.70;;
32130;SDS011;18639;50.716;7.086;2024-03-06T10:35:36;3.17;;;1.70;;
32130;SDS011;18639;50.716;7.086;2024-03-06T10:38:03;4.47;;;1.77;;
32130;SDS011;18639;50.716;7.086;2024-03-06T10:40:33;3.08;;;1.77;;
32130;SDS011;18639;50.716;7.086;2024-03-06T10:43:00;3.28;;;1.70;;
32130;SDS011;18639;50.716;7.086;2024-03-06T10:46:08;3.72;;;1.80;;
32130;SDS011;18639;50.716;7.086;2024-03-06T10:48:19;3.47;;;1.75;;
32130;SDS011;18639;50.716;7.086;2024-03-06T10:50:45;3.95;;;1.65;;
32130;SDS011;18639;50.716;7.086;2024-03-06T10:53:12;3.72;;;1.77;;
32130;SDS011;18639;50.716;7.086;2024-03-06T10:55:39;5.15;;;1.65;;
32130;SDS011;18639;50.716;7.086;2024-03-06T10:58:05;3.38;;;1.80;;
32130;SDS011;18639;50.716;7.086;2024-03-06T11:00:35;2.47;;;1.60;;
32130;SDS011;18639;50.716;7.086;2024-03-06T11:03:04;2.47;;;1.27;;
32130;SDS011;18639;50.716;7.086;2024-03-06T11:05:33;3.17;;;1.48;;
32130;SDS011;18639;50.716;7.086;2024-03-06T11:08:05;2.08;;;1.30;;
32130;SDS011;18639;50.716;7.086;2024-03-06T11:10:37;3.58;;;1.50;;
32130;SDS011;18639;50.716;7.086;2024-03-06T11:15:45;4.25;;;2.00;;
32130;SDS011;18639;50.716;7.086;2024-03-06T11:18:54;4.25;;;2.08;;
32130;SDS011;18639;50.716;7.086;2024-03-06T11:23:31;5.30;;;1.75;;
32130;SDS011;18639;50.716;7.086;2024-03-06T11:26:01;4.20;;;1.60;;
32130;SDS011;18639;50.716;7.086;2024-03-06T11:28:29;4.22;;;1.95;;
32130;SDS011;18639;50.716;7.086;2024-03-06T11:30:56;2.70;;;1.42;;
32130;SDS011;18639;50.716;7.086;2024-03-06T11:33:23;3.15;;;1.80;;
32130;SDS011;18639;50.716;7.086;2024-03-06T11:41:18;3.35;;;1.60;;
32130;SDS011;18639;50.716;7.086;2024-03-06T11:43:44;3.63;;;1.80;;
32130;SDS011;18639;50.716;7.086;2024-03-06T11:46:11;3.17;;;1.77;;
32130;SDS011;18639;50.716;7.086;2024-03-06T11:48:37;6.03;;;1.65;;
32130;SDS011;18639;50.716;7.086;2024-03-06T11:51:02;3.95;;;1.90;;
32130;SDS011;18639;50.716;7.086;2024-03-06T11:53:32;3.10;;;1.55;;
32130;SDS011;18639;50.716;7.086;2024-03-06T11:56:00;2.72;;;1.55;;
32130;SDS011;18639;50.716;7.086;2024-03-06T11:58:25;2.72;;;1.67;;
32130;SDS011;18639;50.716;7.086;2024-03-06T12:00:51;3.28;;;1.58;;
32130;SDS011;18639;50.716;7.086;2024-03-06T12:03:19;3.85;;;1.70;;
32130;SDS011;18639;50.716;7.086;2024-03-06T12:05:45;8.93;;;1.90;;
32130;SDS011;18639;50.716;7.086;2024-03-06T12:08:11;3.35;;;1.50;;
32130;SDS011;18639;50.716;7.086;2024-03-06T12:10:37;3.38;;;1.63;;
32130;SDS011;18639;50.716;7.086;2024-03-06T12:13:03;4.32;;;1.63;;
32130;SDS011;18639;50.716;7.086;2024-03-06T12:15:29;3.35;;;1.23;;
32130;SDS011;18639;50.716;7.086;2024-03-06T12:17:54;2.72;;;1.50;;
32130;SDS011;18639;50.716;7.086;2024-03-06T12:20:20;3.58;;;1.58;;
32130;SDS011;18639;50.716;7.086;2024-03-06T12:22:49;3.97;;;1.63;;
32130;SDS011;18639;50.716;7.086;2024-03-06T12:25:21;2.58;;;1.58;;
32130;SDS011;18639;50.716;7.086;2024-03-06T12:27:48;2.92;;;1.83;;
32130;SDS011;18639;50.716;7.086;2024-03-06T12:30:19;3.72;;;1.58;;
32130;SDS011;18639;50.716;7.086;2024-03-06T12:33:01;3.30;;;1.52;;
32130;SDS011;18639;50.716;7.086;2024-03-06T12:35:30;3.58;;;1.45;;
32130;SDS011;18639;50.716;7.086;2024-03-06T12:37:56;2.15;;;1.40;;
32130;SDS011;18639;50.716;7.086;2024-03-06T12:40:22;1.67;;;1.00;;
32130;SDS011;18639;50.716;7.086;2024-03-06T12:42:48;2.83;;;1.40;;
32130;SDS011;18639;50.716;7.086;2024-03-06T12:45:14;2.88;;;1.50;;
32130;SDS011;18639;50.716;7.086;2024-03-06T12:47:40;4.13;;;1.80;;
32130;SDS011;18639;50.716;7.086;2024-03-06T12:50:10;2.97;;;1.45;;
32130;SDS011;18639;50.716;7.086;2024-03-06T12:52:36;3.20;;;1.77;;
32130;SDS011;18639;50.716;7.086;2024-03-06T12:55:02;3.60;;;1.52;;
32130;SDS011;18639;50.716;7.086;2024-03-06T12:57:30;3.42;;;1.48;;
32130;SDS011;18639;50.716;7.086;2024-03-06T12:59:55;2.72;;;1.00;;
32130;SDS011;18639;50.716;7.086;2024-03-06T13:02:21;5.30;;;1.00;;
32130;SDS011;18639;50.716;7.086;2024-03-06T13:04:46;1.45;;;1.10;;
32130;SDS011;18639;50.716;7.086;2024-03-06T13:07:11;3.85;;;2.13;;
32130;SDS011;18639;50.716;7.086;2024-03-06T13:09:36;4.10;;;1.88;;
32130;SDS011;18639;50.716;7.086;2024-03-06T13:12:03;6.57;;;1.88;;
32130;SDS011;18639;50.716;7.086;2024-03-06T13:14:29;3.28;;;1.73;;
32130;SDS011;18639;50.716;7.086;2024-03-06T13:16:55;3.88;;;1.80;;
32130;SDS011;18639;50.716;7.086;2024-03-06T13:19:21;1.77;;;1.20;;
32130;SDS011;18639;50.716;7.086;2024-03-06T13:21:47;2.10;;;1.45;;
32130;SDS011;18639;50.716;7.086;2024-03-06T13:24:12;3.83;;;1.42;;
32130;SDS011;18639;50.716;7.086;2024-03-06T13:26:38;2.40;;;1.15;;
32130;SDS011;18639;50.716;7.086;2024-03-06T13:29:05;3.20;;;1.77;;
32130;SDS011;18639;50.716;7.086;2024-03-06T13:31:31;3.05;;;1.70;;
32130;SDS011;18639;50.716;7.086;2024-03-06T13:33:58;4.13;;;1.60;;
32130;SDS011;18639;50.716;7.086;2024-03-06T13:36:25;4.70;;;1.88;;
32130;SDS011;18639;50.716;7.086;2024-03-06T13:38:50;3.60;;;1.73;;
32130;SDS011;18639;50.716;7.086;2024-03-06T13:41:16;4.05;;;1.92;;
32130;SDS011;18639;50.716;7.086;2024-03-06T13:43:41;3.95;;;2.20;;
32130;SDS011;18639;50.716;7.086;2024-03-06T13:46:07;3.03;;;1.45;;
32130;SDS011;18639;50.716;7.086;2024-03-06T13:48:32;3.60;;;1.60;;
32130;SDS011;18639;50.716;7.086;2024-03-06T13:50:57;3.40;;;1.65;;
32130;SDS011;18639;50.716;7.086;2024-03-06T13:53:23;3.03;;;1.48;;
32130;SDS011;18639;50.716;7.086;2024-03-06T13:55:48;3.03;;;1.55;;
32130;SDS011;18639;50.716;7.086;2024-03-06T13:58:13;3.17;;;1.52;;
32130;SDS011;18639;50.716;7.086;2024-03-06T14:00:39;4.80;;;2.00;;
32130;SDS011;18639;50.716;7.086;2024-03-06T14:03:05;3.60;;;1.65;;
32130;SDS011;18639;50.716;7.086;2024-03-06T14:05:33;2.90;;;1.42;;
32130;SDS011;18639;50.716;7.086;2024-03-06T14:07:59;3.92;;;1.75;;
32130;SDS011;18639;50.716;7.086;2024-03-06T14:10:24;3.28;;;1.75;;
32130;SDS011;18639;50.716;7.086;2024-03-06T14:12:51;3.47;;;1.75;;
32130;SDS011;18639;50.716;7.086;2024-03-06T14:15:18;2.80;;;1.40;;
32130;SDS011;18639;50.716;7.086;2024-03-06T14:17:44;3.35;;;1.67;;
32130;SDS011;18639;50.716;7.086;2024-03-06T14:20:10;3.88;;;1.65;;
32130;SDS011;18639;50.716;7.086;2024-03-06T14:22:37;3.92;;;1.80;;
32130;SDS011;18639;50.716;7.086;2024-03-06T14:25:02;4.00;;;1.50;;
32130;SDS011;18639;50.716;7.086;2024-03-06T14:27:28;4.57;;;1.40;;
32130;SDS011;18639;50.716;7.086;2024-03-06T14:29:53;2.70;;;1.13;;
32130;SDS011;18639;50.716;7.086;2024-03-06T14:32:19;3.95;;;1.60;;
32130;SDS011;18639;50.716;7.086;2024-03-06T14:34:44;1.95;;;1.20;;
32130;SDS011;18639;50.716;7.086;2024-03-06T14:37:10;2.75;;;1.23;;
32130;SDS011;18639;50.716;7.086;2024-03-06T14:39:35;2.10;;;1.30;;
32130;SDS011;18639;50.716;7.086;2024-03-06T14:42:01;4.70;;;1.80;;
32130;SDS011;18639;50.716;7.086;2024-03-06T14:44:26;6.00;;;1.67;;
32130;SDS011;18639;50.716;7.086;2024-03-06T14:46:51;3.08;;;1.70;;
32130;SDS011;18639;50.716;7.086;2024-03-06T14:49:17;2.88;;;1.50;;
32130;SDS011;18639;50.716;7.086;2024-03-06T14:51:42;2.13;;;1.33;;